Time;durP1;ratioP1;P1;durP2;ratioP2;P2;SDS_P1;SDS_P2;PMS_P1;PMS_P2;Temp;Humidity;BMP_temperature;BMP_pressure;BME280_temperature;BME280_humidity;BME280_pressure;Samples;Min_cycle;Max_cycle;Signal;HPM_P1;HPM_P2
2023/09/02 00:02:25;;;;;;;6.47;5.20;;;17.10;1.00;;;;;;5005960;28;20203;-82
2023/09/02 00:04:51;;;;;;;8.60;5.20;;;17.10;1.00;;;;;;5017381;28;20446;-82
2023/09/02 00:07:16;;;;;;;6.30;5.03;;;17.10;1.00;;;;;;5005114;28;20279;-83
2023/09/02 00:09:42;;;;;;;5.17;4.60;;;17.00;1.00;;;;;;5018681;28;20192;-82
2023/09/02 00:12:08;;;;;;;5.43;4.93;;;17.00;1.00;;;;;;5006737;28;20210;-83
2023/09/02 00:14:33;;;;;;;6.60;5.90;;;17.00;1.00;;;;;;5004470;28;20504;-82
2023/09/02 00:16:59;;;;;;;6.47;5.87;;;17.10;1.00;;;;;;5006293;28;20191;-82
2023/09/02 00:19:24;;;;;;;6.87;6.10;;;17.00;1.00;;;;;;5023783;28;20693;-82
2023/09/02 00:21:50;;;;;;;9.13;5.93;;;17.00;1.00;;;;;;5017276;28;20196;-82
2023/09/02 00:24:15;;;;;;;9.00;5.87;;;16.90;1.00;;;;;;5004124;28;20188;-81
2023/09/02 00:26:41;;;;;;;7.07;5.40;;;16.90;1.00;;;;;;5022638;28;20687;-82
2023/09/02 00:29:06;;;;;;;6.93;6.17;;;16.90;1.00;;;;;;5023629;28;20704;-83
2023/09/02 00:31:34;;;;;;;6.83;5.37;;;16.90;1.00;;;;;;5026478;28;20188;-82
2023/09/02 00:33:59;;;;;;;7.93;6.10;;;16.90;1.00;;;;;;5011219;28;20203;-83
2023/09/02 00:36:27;;;;;;;7.63;5.40;;;16.80;1.00;;;;;;5029068;28;20454;-82
2023/09/02 00:38:53;;;;;;;7.43;5.40;;;16.80;1.00;;;;;;5022938;28;20206;-83
2023/09/02 00:41:25;;;;;;;10.47;4.90;;;16.70;1.00;;;;;;5030056;28;20495;-82
2023/09/02 00:43:52;;;;;;;10.75;5.95;;;16.70;1.00;;;;;;5025389;28;20685;-82
2023/09/02 00:46:17;;;;;;;6.73;5.57;;;16.70;1.00;;;;;;5026759;28;20181;-82
2023/09/02 00:48:43;;;;;;;6.73;5.43;;;16.70;1.00;;;;;;5031873;28;20456;-83
2023/09/02 00:51:09;;;;;;;7.50;6.67;;;16.70;1.00;;;;;;5030430;28;20194;-83
2023/09/02 00:53:34;;;;;;;7.13;5.10;;;16.70;1.00;;;;;;5028708;28;20331;-83
2023/09/02 00:56:01;;;;;;;8.93;6.00;;;16.60;1.00;;;;;;5020290;28;20500;-82
2023/09/02 00:58:27;;;;;;;7.90;5.10;;;16.60;1.00;;;;;;5010382;28;20210;-83
2023/09/02 01:00:53;;;;;;;9.73;5.67;;;16.60;1.00;;;;;;5012734;28;20433;-83
2023/09/02 01:03:18;;;;;;;6.80;4.67;;;16.60;1.00;;;;;;5022783;28;20227;-83
2023/09/02 01:05:44;;;;;;;6.57;4.97;;;16.60;1.00;;;;;;5027290;28;20503;-82
2023/09/02 01:08:11;;;;;;;10.57;5.27;;;16.60;1.00;;;;;;5029433;28;20183;-83
2023/09/02 01:10:37;;;;;;;7.07;5.10;;;16.50;1.00;;;;;;5028657;28;20187;-81
2023/09/02 01:13:03;;;;;;;9.20;5.27;;;16.50;1.00;;;;;;5012225;28;20525;-81
2023/09/02 01:15:30;;;;;;;7.53;5.80;;;16.50;1.00;;;;;;5026527;28;20202;-82
2023/09/02 01:17:56;;;;;;;6.90;4.90;;;16.50;1.00;;;;;;5023966;28;20444;-82
2023/09/02 01:20:27;;;;;;;4.80;4.30;;;16.50;1.00;;;;;;5026362;28;20471;-82
2023/09/02 01:23:21;;;;;;;8.23;4.77;;;16.50;1.00;;;;;;5026326;28;20203;-82
2023/09/02 01:26:25;;;;;;;4.87;4.43;;;16.40;1.00;;;;;;5025536;28;20437;-82
2023/09/02 01:28:55;;;;;;;10.53;5.00;;;16.40;1.00;;;;;;5015352;28;20455;-82
2023/09/02 01:31:23;;;;;;;7.37;4.87;;;16.40;1.00;;;;;;5024773;28;20453;-83
2023/09/02 01:33:52;;;;;;;11.83;5.00;;;16.40;1.00;;;;;;5023588;28;20475;-82
2023/09/02 01:36:18;;;;;;;6.70;4.67;;;16.50;1.80;;;;;;5006260;28;20499;-82
2023/09/02 01:38:45;;;;;;;9.70;4.83;;;16.50;1.80;;;;;;5027164;28;20468;-81
2023/09/02 01:41:13;;;;;;;8.40;4.30;;;16.50;2.40;;;;;;5020713;28;20441;-82
2023/09/02 01:43:39;;;;;;;4.37;3.80;;;16.60;3.90;;;;;;5022033;28;20472;-82
2023/09/02 01:46:06;;;;;;;4.80;4.00;;;16.60;3.70;;;;;;5005266;28;20933;-83
2023/09/02 01:48:33;;;;;;;4.17;3.73;;;16.70;2.90;;;;;;5025770;28;20453;-82
2023/09/02 01:50:59;;;;;;;7.30;3.80;;;16.70;1.00;;;;;;5025153;28;21111;-82
2023/09/02 01:53:24;;;;;;;6.47;4.10;;;16.70;1.00;;;;;;5019542;28;20569;-82
2023/09/02 01:55:50;;;;;;;6.53;4.30;;;16.70;1.00;;;;;;5023276;28;20246;-82
2023/09/02 01:58:16;;;;;;;4.07;3.67;;;16.70;1.00;;;;;;5006842;28;20206;-83
2023/09/02 02:00:42;;;;;;;6.53;4.20;;;16.80;1.00;;;;;;5028080;28;20245;-83
2023/09/02 02:03:17;;;;;;;7.23;4.03;;;16.80;1.00;;;;;;5031928;28;20555;-83
2023/09/02 02:05:52;;;;;;;6.17;4.27;;;16.80;1.00;;;;;;5022158;28;20194;-82
2023/09/02 02:08:29;;;;;;;6.83;3.80;;;16.80;1.00;;;;;;5022437;28;20439;-82
2023/09/02 02:10:57;;;;;;;8.53;5.40;;;16.80;1.00;;;;;;5007868;28;20463;-83
2023/09/02 02:13:23;;;;;;;8.87;4.57;;;16.80;1.00;;;;;;5026030;28;20461;-82
2023/09/02 02:15:49;;;;;;;4.83;4.20;;;16.80;1.00;;;;;;5020891;28;20475;-82
2023/09/02 02:18:14;;;;;;;4.77;4.30;;;16.70;1.00;;;;;;5025830;28;20179;-83
2023/09/02 02:20:58;;;;;;;5.13;3.80;;;16.60;1.00;;;;;;5026160;28;20193;-82
2023/09/02 02:23:23;;;;;;;6.30;4.60;;;16.60;1.00;;;;;;5024408;28;20202;-82
2023/09/02 02:25:49;;;;;;;4.93;4.30;;;16.60;1.00;;;;;;5004385;28;20435;-82
2023/09/02 02:28:14;;;;;;;4.80;4.40;;;16.50;1.00;;;;;;5020863;28;20187;-82
2023/09/02 02:30:40;;;;;;;8.63;5.07;;;16.50;1.00;;;;;;5023147;28;20188;-83
2023/09/02 02:33:05;;;;;;;5.17;3.60;;;16.50;1.00;;;;;;5026772;28;20210;-83
2023/09/02 02:35:34;;;;;;;6.33;4.07;;;16.60;1.00;;;;;;5025705;28;20202;-82
2023/09/02 02:37:59;;;;;;;9.43;4.40;;;16.50;1.00;;;;;;5023257;28;20979;-82
2023/09/02 02:40:26;;;;;;;4.73;4.20;;;16.50;1.00;;;;;;5027703;28;20510;-82
2023/09/02 02:42:51;;;;;;;6.13;4.97;;;16.50;1.00;;;;;;5022206;28;20205;-82
2023/09/02 02:45:17;;;;;;;5.47;4.60;;;16.50;1.00;;;;;;5003550;28;20438;-82
2023/09/02 02:47:42;;;;;;;5.30;4.20;;;16.40;1.00;;;;;;5014172;28;20218;-82
2023/09/02 02:50:08;;;;;;;5.50;4.60;;;16.40;1.00;;;;;;5002998;28;20293;-83
2023/09/02 02:52:34;;;;;;;5.77;4.17;;;16.40;1.00;;;;;;5002622;28;20211;-82
2023/09/02 02:54:59;;;;;;;6.37;3.70;;;16.40;1.00;;;;;;5019428;28;20445;-81
2023/09/02 02:57:25;;;;;;;8.10;4.27;;;16.40;1.00;;;;;;5002676;28;20189;-82
2023/09/02 02:59:51;;;;;;;5.93;4.60;;;16.40;1.00;;;;;;5019120;28;20578;-82
2023/09/02 03:02:17;;;;;;;15.52;4.38;;;16.40;1.00;;;;;;5017968;28;20230;-82
2023/09/02 03:04:47;;;;;;;9.30;5.70;;;16.30;1.00;;;;;;5019469;28;20198;-82
2023/09/02 03:07:13;;;;;;;5.00;4.23;;;16.30;1.00;;;;;;4999025;28;20271;-82
2023/09/02 03:09:39;;;;;;;6.63;4.10;;;16.30;1.00;;;;;;5004899;28;20552;-83
2023/09/02 03:12:05;;;;;;;7.73;4.30;;;16.30;1.00;;;;;;5020147;28;20468;-82
2023/09/02 03:14:30;;;;;;;6.37;4.30;;;16.30;1.00;;;;;;5015058;28;20190;-82
2023/09/02 03:16:56;;;;;;;8.03;4.00;;;16.30;1.00;;;;;;5018133;28;20880;-82
2023/09/02 03:19:21;;;;;;;5.83;3.67;;;16.30;1.00;;;;;;5003376;28;20198;-82
2023/09/02 03:21:47;;;;;;;6.30;3.77;;;16.30;1.00;;;;;;5020809;28;20190;-82
2023/09/02 03:24:13;;;;;;;6.17;3.97;;;16.20;1.00;;;;;;5002150;28;20178;-82
2023/09/02 03:26:38;;;;;;;6.00;4.27;;;16.20;1.00;;;;;;5018782;28;20438;-82
2023/09/02 03:29:04;;;;;;;7.37;4.23;;;16.20;1.00;;;;;;5018492;28;20210;-83
2023/09/02 03:31:29;;;;;;;9.20;4.60;;;16.10;1.00;;;;;;5023619;28;20265;-83
2023/09/02 03:33:55;;;;;;;8.60;4.23;;;16.10;1.00;;;;;;5025821;28;20214;-82
2023/09/02 03:36:20;;;;;;;4.70;4.20;;;16.10;1.00;;;;;;5023175;28;20202;-83
2023/09/02 03:38:46;;;;;;;4.97;4.20;;;16.10;1.00;;;;;;5026021;28;20657;-82
2023/09/02 03:41:12;;;;;;;5.47;4.30;;;16.20;1.00;;;;;;5023173;28;20748;-82
2023/09/02 03:43:38;;;;;;;7.20;4.23;;;16.20;1.00;;;;;;5027012;28;20221;-82
2023/09/02 03:46:04;;;;;;;7.73;4.20;;;16.20;1.00;;;;;;5009376;28;20980;-82
2023/09/02 03:48:29;;;;;;;4.90;4.40;;;16.20;1.00;;;;;;5031289;28;20210;-82
2023/09/02 03:51:11;;;;;;;5.53;4.40;;;16.20;1.00;;;;;;5024248;28;20933;-82
2023/09/02 03:53:41;;;;;;;4.80;4.27;;;16.20;1.00;;;;;;5007558;28;20206;-82
2023/09/02 03:56:07;;;;;;;4.87;4.10;;;16.20;1.00;;;;;;5032181;28;20532;-82
2023/09/02 03:58:32;;;;;;;6.73;4.20;;;16.20;1.00;;;;;;5027299;28;20510;-82
2023/09/02 04:00:58;;;;;;;6.40;4.30;;;16.20;1.00;;;;;;5009873;28;20189;-82
2023/09/02 04:03:26;;;;;;;6.93;5.23;;;16.20;1.00;;;;;;5024478;28;20247;-83
2023/09/02 04:05:52;;;;;;;6.47;3.88;;;16.20;1.00;;;;;;5028097;28;20198;-83
2023/09/02 04:08:21;;;;;;;6.77;4.73;;;16.20;1.00;;;;;;5027983;28;20452;-82
2023/09/02 04:10:52;;;;;;;4.93;4.27;;;16.20;1.00;;;;;;5006461;28;20429;-83
2023/09/02 04:13:21;;;;;;;4.57;4.17;;;16.20;1.00;;;;;;5009503;28;20456;-82
2023/09/02 04:15:47;;;;;;;4.90;4.40;;;16.20;1.00;;;;;;5021977;28;20484;-82
2023/09/02 04:18:12;;;;;;;7.33;4.03;;;16.10;1.00;;;;;;5032949;28;20449;-82
2023/09/02 04:20:38;;;;;;;4.83;4.17;;;16.10;1.00;;;;;;5025980;28;20199;-82
2023/09/02 04:23:03;;;;;;;6.97;4.47;;;16.10;1.00;;;;;;5027402;28;20660;-82
2023/09/02 04:25:29;;;;;;;5.27;4.40;;;16.00;1.00;;;;;;5020314;28;20188;-82
2023/09/02 04:27:54;;;;;;;7.53;4.60;;;16.00;1.00;;;;;;5018102;28;20187;-82
2023/09/02 04:30:22;;;;;;;6.57;4.70;;;16.00;1.00;;;;;;5017609;28;20210;-82
2023/09/02 04:32:49;;;;;;;5.00;4.50;;;16.00;1.00;;;;;;5003375;28;20692;-82
2023/09/02 04:35:14;;;;;;;5.53;4.47;;;15.90;1.00;;;;;;5022352;28;20186;-82
2023/09/02 04:37:40;;;;;;;6.27;4.73;;;15.90;1.00;;;;;;5019807;28;20447;-82
2023/09/02 04:40:06;;;;;;;6.10;3.97;;;15.90;1.00;;;;;;5022816;28;20670;-83
2023/09/02 04:42:32;;;;;;;8.47;4.43;;;16.00;1.00;;;;;;5017717;28;20206;-82
2023/09/02 04:44:58;;;;;;;5.43;4.33;;;15.90;1.00;;;;;;5023287;28;20448;-82
2023/09/02 04:47:23;;;;;;;4.40;4.00;;;15.90;1.00;;;;;;4998323;28;20528;-82
2023/09/02 04:49:50;;;;;;;6.37;4.80;;;15.80;1.00;;;;;;5000834;28;20551;-82
2023/09/02 04:52:15;;;;;;;8.80;4.90;;;15.80;1.00;;;;;;5023845;28;21300;-82
2023/09/02 04:54:44;;;;;;;6.80;4.40;;;15.80;1.00;;;;;;5018515;28;20563;-82
2023/09/02 04:57:09;;;;;;;5.10;4.60;;;15.80;1.00;;;;;;5021697;28;20186;-82
2023/09/02 04:59:35;;;;;;;8.27;4.20;;;15.80;1.00;;;;;;5006734;28;20186;-82
2023/09/02 05:02:00;;;;;;;4.80;3.50;;;15.90;1.00;;;;;;5001487;28;20205;-82
2023/09/02 05:04:26;;;;;;;4.67;4.27;;;16.00;1.00;;;;;;5019790;28;20221;-82
2023/09/02 05:06:51;;;;;;;6.77;3.80;;;16.10;1.00;;;;;;5027243;28;20193;-83
2023/09/02 05:09:17;;;;;;;7.93;4.20;;;16.10;1.00;;;;;;5022283;28;20210;-83
2023/09/02 05:11:42;;;;;;;4.40;3.77;;;16.10;1.00;;;;;;5026032;28;20531;-83
2023/09/02 05:14:08;;;;;;;7.10;4.57;;;16.10;1.00;;;;;;5026893;28;20187;-83
2023/09/02 05:16:33;;;;;;;5.93;4.13;;;16.20;1.00;;;;;;5027044;28;20243;-83
2023/09/02 05:18:59;;;;;;;8.00;4.60;;;16.20;1.00;;;;;;5022325;28;20713;-82
2023/09/02 05:21:24;;;;;;;5.03;4.10;;;16.20;1.00;;;;;;5024675;28;20182;-82
2023/09/02 05:23:50;;;;;;;5.47;4.60;;;16.30;1.00;;;;;;5023653;28;20226;-82
2023/09/02 05:26:15;;;;;;;5.73;4.20;;;16.40;1.00;;;;;;5020316;28;20186;-82
2023/09/02 05:28:41;;;;;;;6.37;3.90;;;16.50;1.00;;;;;;5024612;28;20216;-82
2023/09/02 05:31:06;;;;;;;8.97;4.83;;;16.60;1.00;;;;;;4999745;28;20192;-82
2023/09/02 05:33:32;;;;;;;3.60;3.30;;;16.80;1.00;;;;;;5005458;28;20234;-83
2023/09/02 05:35:57;;;;;;;4.27;3.77;;;17.00;1.00;;;;;;5021266;28;20189;-82
2023/09/02 05:38:23;;;;;;;4.57;3.63;;;17.20;1.00;;;;;;5007873;28;20713;-83
2023/09/02 05:40:48;;;;;;;6.07;3.93;;;17.30;1.00;;;;;;5023440;28;20191;-82
2023/09/02 05:43:14;;;;;;;4.33;3.50;;;17.60;1.00;;;;;;5021995;28;20201;-83
2023/09/02 05:45:40;;;;;;;4.80;3.60;;;18.30;1.00;;;;;;5028741;28;20168;-83
2023/09/02 05:48:06;;;;;;;3.90;3.03;;;18.80;99.90;;;;;;5021534;28;20194;-82
2023/09/02 05:50:31;;;;;;;6.40;3.23;;;19.00;1.00;;;;;;5022248;28;20335;-82
2023/09/02 05:52:57;;;;;;;3.47;3.00;;;19.00;1.00;;;;;;5003079;28;20510;-83
2023/09/02 05:55:22;;;;;;;4.90;2.97;;;18.80;1.00;;;;;;5007720;28;20182;-83
2023/09/02 05:57:48;;;;;;;5.33;3.30;;;18.60;1.00;;;;;;5021686;28;20190;-83
2023/09/02 06:00:14;;;;;;;5.40;3.30;;;18.30;63.60;;;;;;4998857;28;20189;-86
2023/09/02 06:02:39;;;;;;;4.33;3.00;;;18.20;99.90;;;;;;5014796;28;20255;-87
2023/09/02 06:05:05;;;;;;;5.37;3.00;;;18.10;99.90;;;;;;5022021;28;20965;-87
2023/09/02 06:07:30;;;;;;;5.63;2.73;;;18.10;99.90;;;;;;5015578;28;20240;-87
2023/09/02 06:09:56;;;;;;;4.10;3.53;;;18.10;99.90;;;;;;5018529;28;20250;-87
2023/09/02 06:12:22;;;;;;;4.77;3.27;;;18.20;99.90;;;;;;5015949;28;20737;-88
2023/09/02 06:14:48;;;;;;;3.43;3.00;;;18.20;99.90;;;;;;5016641;28;20785;-87
2023/09/02 06:17:14;;;;;;;5.00;3.40;;;18.10;99.90;;;;;;5001323;28;20448;-87
2023/09/02 06:19:39;;;;;;;5.53;3.10;;;18.10;99.90;;;;;;5014822;28;20453;-88
2023/09/02 06:22:05;;;;;;;3.30;3.00;;;18.30;99.90;;;;;;5015473;28;20319;-87
2023/09/02 06:24:30;;;;;;;3.70;2.90;;;18.20;99.90;;;;;;5020161;28;20571;-88
2023/09/02 06:27:03;;;;;;;5.87;3.17;;;18.40;99.90;;;;;;5018769;28;20265;-87
2023/09/02 06:29:28;;;;;;;6.10;3.50;;;18.60;99.90;;;;;;4994519;28;20207;-88
2023/09/02 06:31:54;;;;;;;5.20;3.50;;;18.70;99.90;;;;;;5020502;28;20452;-88
2023/09/02 06:34:22;;;;;;;3.70;3.03;;;18.70;88.00;;;;;;5016563;28;20665;-88
2023/09/02 06:36:48;;;;;;;3.90;3.10;;;18.60;99.90;;;;;;5017503;28;20228;-88
2023/09/02 06:39:13;;;;;;;3.13;2.73;;;18.90;99.90;;;;;;5017551;28;20506;-88
2023/09/02 06:41:39;;;;;;;3.60;2.60;;;19.10;84.50;;;;;;5012347;28;20281;-87
2023/09/02 06:44:04;;;;;;;3.83;2.77;;;19.20;1.00;;;;;;5016686;28;20753;-88
2023/09/02 06:46:31;;;;;;;3.20;2.70;;;19.30;1.00;;;;;;5019346;28;20272;-87
2023/09/02 06:48:58;;;;;;;4.50;2.83;;;19.30;99.90;;;;;;5018320;28;21031;-88
2023/09/02 06:51:24;;;;;;;2.88;2.58;;;19.70;99.90;;;;;;5017548;28;21247;-87
2023/09/02 06:53:50;;;;;;;2.73;2.53;;;20.10;93.70;;;;;;5010020;28;20202;-88
2023/09/02 06:56:15;;;;;;;4.30;2.50;;;20.70;99.90;;;;;;5014677;28;20189;-88
2023/09/02 06:58:42;;;;;;;3.77;2.30;;;21.30;1.00;;;;;;5014361;28;20224;-88
2023/09/02 07:01:24;;;;;;;3.77;2.33;;;21.90;99.90;;;;;;5019450;28;20686;-88
2023/09/02 07:03:50;;;;;;;4.43;2.53;;;22.50;69.00;;;;;;5018043;28;20990;-88
2023/09/02 07:06:16;;;;;;;2.37;2.17;;;22.70;1.00;;;;;;5012057;28;20431;-88
2023/09/02 07:08:42;;;;;;;5.50;2.60;;;22.80;99.90;;;;;;5012682;28;20499;-89
2023/09/02 07:11:09;;;;;;;2.20;2.00;;;23.00;99.90;;;;;;5018666;28;20199;-89
2023/09/02 07:13:36;;;;;;;3.00;2.13;;;23.50;99.90;;;;;;4998741;28;20524;-89
2023/09/02 07:16:03;;;;;;;2.17;2.00;;;24.50;60.00;;;;;;5020945;28;20449;-89
2023/09/02 07:18:29;;;;;;;3.20;2.07;;;25.60;1.00;;;;;;5021005;28;20467;-88
2023/09/02 07:21:02;;;;;;;2.93;1.90;;;26.60;1.00;;;;;;5016563;28;20856;-88
2023/09/02 07:23:28;;;;;;;2.50;1.30;;;27.30;1.00;;;;;;5020033;28;20560;-88
2023/09/02 07:25:56;;;;;;;2.77;2.23;;;28.10;1.00;;;;;;5021552;28;20444;-88
2023/09/02 07:28:22;;;;;;;2.40;1.67;;;27.90;1.00;;;;;;5023078;28;20449;-87
2023/09/02 07:30:47;;;;;;;2.93;2.07;;;28.00;1.00;;;;;;5021507;28;20448;-88
2023/09/02 07:33:13;;;;;;;5.60;2.27;;;27.80;1.00;;;;;;5019548;28;20757;-89
2023/09/02 07:35:39;;;;;;;5.37;1.83;;;27.40;1.00;;;;;;5017901;28;20223;-88
2023/09/02 07:38:05;;;;;;;3.23;2.00;;;27.20;1.00;;;;;;5019461;28;20269;-88
2023/09/02 07:40:31;;;;;;;3.63;1.90;;;27.20;1.00;;;;;;5020667;28;20513;-89
2023/09/02 07:43:00;;;;;;;2.93;2.63;;;27.20;1.00;;;;;;5019851;28;20457;-88
2023/09/02 07:45:25;;;;;;;2.40;2.13;;;27.20;1.00;;;;;;5000864;28;20199;-88
2023/09/02 07:47:51;;;;;;;4.77;1.90;;;26.80;1.00;;;;;;5018354;28;20440;-88
2023/09/02 07:50:16;;;;;;;2.40;2.13;;;27.00;1.00;;;;;;5016131;28;20214;-88
2023/09/02 07:52:42;;;;;;;1.87;1.63;;;27.50;1.00;;;;;;5015336;28;20586;-88
2023/09/02 07:55:07;;;;;;;2.57;1.97;;;28.80;1.00;;;;;;5020304;28;20244;-88
2023/09/02 07:57:33;;;;;;;2.60;1.73;;;30.80;1.00;;;;;;5003085;28;20767;-89
2023/09/02 07:59:59;;;;;;;2.87;1.50;;;31.80;1.00;;;;;;5020829;28;20715;-89
2023/09/02 08:02:25;;;;;;;3.40;1.60;;;32.10;1.00;;;;;;5019109;28;20707;-89
2023/09/02 08:04:51;;;;;;;4.90;1.80;;;32.20;1.00;;;;;;5020971;28;20443;-89
2023/09/02 08:07:16;;;;;;;2.03;1.63;;;32.50;1.00;;;;;;5020607;28;20197;-89
2023/09/02 08:09:42;;;;;;;3.40;1.73;;;32.60;99.90;;;;;;5022371;28;20229;-89
2023/09/02 08:12:08;;;;;;;1.83;1.50;;;32.70;99.90;;;;;;5017767;28;20245;-89
2023/09/02 08:14:33;;;;;;;2.30;1.47;;;33.20;99.90;;;;;;5000454;28;20264;-89
2023/09/02 08:16:59;;;;;;;3.00;1.63;;;34.00;99.90;;;;;;5023596;28;20186;-88
2023/09/02 08:19:24;;;;;;;6.35;1.58;;;34.70;99.90;;;;;;5018352;28;20190;-89
2023/09/02 08:21:50;;;;;;;4.43;1.30;;;35.20;99.90;;;;;;5022357;28;20194;-89
2023/09/02 08:24:15;;;;;;;3.30;1.50;;;36.00;99.90;;;;;;5035748;28;20182;-88
2023/09/02 08:26:42;;;;;;;2.87;1.80;;;36.40;99.90;;;;;;5032762;28;20683;-88
2023/09/02 08:29:07;;;;;;;3.10;1.67;;;38.00;99.90;;;;;;5014831;28;20908;-88
2023/09/02 08:31:33;;;;;;;2.70;1.77;;;38.20;99.90;;;;;;5030164;28;20449;-88
2023/09/02 08:33:58;;;;;;;6.33;1.57;;;37.90;99.90;;;;;;5011356;28;20230;-89
2023/09/02 08:36:24;;;;;;;5.30;1.37;;;39.10;99.90;;;;;;5019020;28;20677;-89
2023/09/02 08:38:51;;;;;;;2.87;1.70;;;40.20;99.90;;;;;;5021562;28;20752;-89
2023/09/02 08:41:30;;;;;;;2.77;1.30;;;40.60;99.90;;;;;;5021519;28;20205;-89
2023/09/02 08:44:01;;;;;;;1.77;1.20;;;39.80;99.90;;;;;;5017741;28;20547;-90
2023/09/02 08:46:27;;;;;;;2.93;1.50;;;39.40;99.90;;;;;;5020243;28;20208;-89
2023/09/02 08:48:57;;;;;;;2.72;1.50;;;38.50;99.90;;;;;;5024158;28;20460;-89
2023/09/02 08:51:27;;;;;;;4.88;1.60;;;38.40;99.90;;;;;;5020201;28;20221;-88
2023/09/02 08:53:54;;;;;;;2.03;1.33;;;38.30;99.90;;;;;;5015441;28;20634;-89
2023/09/02 08:56:21;;;;;;;3.50;1.30;;;38.10;99.90;;;;;;5012248;28;20208;-89
2023/09/02 08:58:54;;;;;;;1.90;1.23;;;38.00;99.90;;;;;;5030029;28;20461;-88
2023/09/02 09:01:21;;;;;;;2.80;1.40;;;37.90;99.90;;;;;;5004235;28;20441;-86
2023/09/02 09:03:55;;;;;;;2.80;1.77;;;37.60;99.90;;;;;;5009335;28;20214;-86
2023/09/02 09:06:22;;;;;;;3.35;1.60;;;37.60;99.90;;;;;;5006774;28;20448;-86
2023/09/02 09:08:50;;;;;;;3.10;1.67;;;38.20;99.90;;;;;;5021231;28;20242;-87
2023/09/02 09:11:17;;;;;;;3.03;1.60;;;39.30;99.90;;;;;;5026913;28;20424;-87
2023/09/02 09:13:48;;;;;;;4.70;1.40;;;40.30;99.90;;;;;;5026689;28;20518;-86
2023/09/02 09:16:16;;;;;;;5.17;1.63;;;42.50;99.90;;;;;;5027000;28;20451;-86
2023/09/02 09:18:45;;;;;;;4.10;1.40;;;43.60;99.90;;;;;;5021232;28;20441;-87
2023/09/02 09:21:10;;;;;;;2.10;1.50;;;44.00;99.90;;;;;;5024282;28;20444;-86
2023/09/02 09:23:36;;;;;;;1.70;1.30;;;44.50;99.90;;;;;;5011480;28;20453;-87
2023/09/02 09:26:03;;;;;;;4.40;2.70;;;42.90;99.90;;;;;;5018993;28;20176;-87
2023/09/02 09:28:58;;;;;;;3.15;1.30;;;42.20;99.90;;;;;;5029125;28;20186;-86
2023/09/02 09:31:24;;;;;;;3.10;2.17;;;41.20;99.90;;;;;;5021134;28;20183;-86
2023/09/02 09:33:58;;;;;;;1.90;1.60;;;39.90;99.90;;;;;;5017198;28;20460;-86
2023/09/02 09:36:30;;;;;;;2.50;1.37;;;38.50;99.90;;;;;;5027146;28;20437;-86
2023/09/02 09:38:56;;;;;;;2.72;1.60;;;37.00;99.90;;;;;;5019076;28;20481;-85
2023/09/02 09:41:23;;;;;;;1.90;1.43;;;36.00;99.90;;;;;;5019781;28;20280;-86
2023/09/02 09:44:10;;;;;;;5.60;1.90;;;37.00;99.90;;;;;;5006575;28;20456;-86
2023/09/02 09:46:46;;;;;;;3.47;1.77;;;38.20;99.90;;;;;;5030650;28;20467;-86
2023/09/02 09:49:25;;;;;;;5.30;1.80;;;39.00;99.90;;;;;;5016459;28;20496;-87
2023/09/02 09:52:07;;;;;;;2.90;1.93;;;39.80;99.90;;;;;;4993702;28;21045;-87
2023/09/02 09:54:47;;;;;;;3.75;2.42;;;39.20;99.90;;;;;;5021114;28;20543;-87
2023/09/02 09:57:35;;;;;;;2.93;2.23;;;37.60;99.90;;;;;;5009630;28;20212;-87
2023/09/02 10:00:01;;;;;;;2.20;1.63;;;36.10;99.90;;;;;;5021696;28;20436;-86
2023/09/02 10:02:27;;;;;;;3.20;2.03;;;35.10;99.90;;;;;;4999146;28;20457;-86
2023/09/02 10:05:00;;;;;;;2.57;1.90;;;34.50;99.90;;;;;;5003708;28;20437;-86
2023/09/02 10:07:31;;;;;;;2.43;2.00;;;33.80;99.90;;;;;;5021098;28;20194;-86
2023/09/02 10:10:00;;;;;;;5.40;1.70;;;33.10;99.90;;;;;;5018170;28;20986;-86
2023/09/02 10:12:27;;;;;;;4.50;2.00;;;32.40;99.90;;;;;;5000824;28;20552;-86
2023/09/02 10:14:53;;;;;;;3.23;1.90;;;32.00;99.90;;;;;;5007021;28;20460;-85
2023/09/02 10:17:20;;;;;;;3.77;3.37;;;31.40;99.90;;;;;;5017468;28;20445;-86
2023/09/02 10:19:46;;;;;;;4.03;2.00;;;30.80;99.90;;;;;;5003078;28;20181;-86
2023/09/02 10:22:19;;;;;;;2.20;1.70;;;30.50;99.90;;;;;;5017347;28;20458;-86
2023/09/02 10:24:55;;;;;;;2.20;1.90;;;31.70;99.90;;;;;;5004340;28;20461;-87
2023/09/02 10:27:25;;;;;;;3.45;1.88;;;31.40;99.90;;;;;;5000270;28;20983;-86
2023/09/02 10:29:56;;;;;;;3.10;2.00;;;31.00;99.90;;;;;;5010195;28;20245;-87
2023/09/02 10:32:39;;;;;;;3.90;1.60;;;30.30;99.90;;;;;;5022300;28;20444;-86
2023/09/02 10:35:11;;;;;;;5.60;1.97;;;30.30;99.90;;;;;;5001944;28;20414;-86
2023/09/02 10:37:48;;;;;;;4.70;1.57;;;30.60;99.90;;;;;;5001364;28;20860;-86
2023/09/02 10:40:20;;;;;;;3.87;1.77;;;31.90;99.90;;;;;;5000726;28;20451;-87
2023/09/02 10:42:47;;;;;;;2.38;1.40;;;33.90;99.90;;;;;;4995842;28;20520;-86
2023/09/02 10:45:12;;;;;;;2.20;1.10;;;34.50;99.90;;;;;;5009395;28;20178;-88
2023/09/02 10:47:39;;;;;;;3.87;1.70;;;36.40;99.90;;;;;;5009775;28;20422;-88
2023/09/02 10:50:08;;;;;;;2.10;1.90;;;37.40;99.90;;;;;;5017309;28;20293;-88
2023/09/02 10:52:33;;;;;;;3.45;1.60;;;38.40;99.90;;;;;;5013718;28;20512;-88
2023/09/02 10:55:03;;;;;;;4.23;2.10;;;37.50;99.90;;;;;;5026071;28;20191;-86
2023/09/02 10:57:43;;;;;;;4.97;2.20;;;36.50;99.90;;;;;;5004450;28;20186;-86
2023/09/02 11:00:16;;;;;;;3.40;2.17;;;35.50;99.90;;;;;;4999851;28;20594;-87
2023/09/02 11:02:44;;;;;;;2.93;1.80;;;34.40;99.90;;;;;;5010673;28;20811;-87
2023/09/02 11:05:10;;;;;;;5.20;2.13;;;33.50;99.90;;;;;;5018789;28;20480;-86
2023/09/02 11:07:39;;;;;;;3.30;2.07;;;32.90;99.90;;;;;;5025778;28;20428;-85
2023/09/02 11:10:05;;;;;;;4.30;1.87;;;32.20;99.90;;;;;;5008535;28;20483;-86
2023/09/02 11:12:33;;;;;;;2.93;1.87;;;31.70;99.90;;;;;;5022287;28;20429;-87
2023/09/02 11:15:08;;;;;;;1.93;1.23;;;32.50;99.90;;;;;;5032295;28;20429;-86
2023/09/02 11:17:38;;;;;;;3.05;1.70;;;34.30;99.90;;;;;;5023655;28;20421;-87
2023/09/02 11:20:08;;;;;;;4.57;2.00;;;35.80;99.90;;;;;;5008981;28;20187;-86
2023/09/02 11:22:51;;;;;;;8.03;1.77;;;36.20;99.90;;;;;;5024773;28;20789;-87
2023/09/02 11:25:31;;;;;;;2.90;1.70;;;36.90;99.90;;;;;;5023254;28;20853;-86
2023/09/02 11:27:59;;;;;;;2.90;1.17;;;37.50;99.90;;;;;;5016877;28;20999;-86
2023/09/02 11:30:26;;;;;;;3.10;1.80;;;37.70;99.90;;;;;;5027033;28;20488;-86
2023/09/02 11:32:52;;;;;;;3.93;1.70;;;36.50;99.90;;;;;;5011662;28;20446;-87
2023/09/02 11:35:32;;;;;;;2.37;1.60;;;36.60;99.90;;;;;;5022082;28;20405;-87
2023/09/02 11:37:59;;;;;;;1.80;1.60;;;37.30;99.90;;;;;;5018890;28;20178;-87
2023/09/02 11:40:26;;;;;;;2.97;1.55;;;37.30;99.90;;;;;;5006663;28;20520;-87
2023/09/02 11:42:53;;;;;;;3.43;1.60;;;37.30;99.90;;;;;;4996723;28;20301;-86
2023/09/02 11:45:19;;;;;;;3.67;1.23;;;36.70;99.90;;;;;;5022620;28;20427;-87
2023/09/02 11:47:47;;;;;;;3.53;1.97;;;37.10;99.90;;;;;;5018117;28;20421;-87
2023/09/02 11:50:17;;;;;;;2.43;1.47;;;37.70;99.90;;;;;;5002776;28;20523;-90
2023/09/02 11:52:44;;;;;;;3.07;1.80;;;38.10;99.90;;;;;;5030042;28;20453;-89
2023/09/02 11:55:13;;;;;;;2.42;1.02;;;38.50;99.90;;;;;;5011383;28;20449;-89
2023/09/02 11:57:39;;;;;;;2.93;1.80;;;38.20;99.90;;;;;;5027039;28;20166;-87
2023/09/02 12:00:07;;;;;;;1.80;1.20;;;38.10;99.90;;;;;;5010058;28;20421;-88
2023/09/02 12:02:36;;;;;;;3.23;1.70;;;37.40;99.90;;;;;;5014955;28;20496;-87
2023/09/02 12:05:06;;;;;;;3.17;1.38;;;36.60;99.90;;;;;;5024422;28;20818;-87
2023/09/02 12:07:35;;;;;;;3.23;1.03;;;35.90;99.90;;;;;;5004166;28;20190;-87
2023/09/02 12:10:14;;;;;;;2.63;1.20;;;35.30;99.90;;;;;;5019254;28;20978;-86
2023/09/02 12:12:48;;;;;;;3.47;1.40;;;34.40;99.90;;;;;;5023531;28;20440;-86
2023/09/02 12:15:16;;;;;;;2.33;1.27;;;33.70;99.90;;;;;;5011410;28;20800;-86
2023/09/02 12:17:42;;;;;;;3.63;1.30;;;32.50;99.90;;;;;;5001452;28;20433;-86
2023/09/02 12:20:11;;;;;;;4.28;1.20;;;32.70;99.90;;;;;;5006711;28;20430;-87
2023/09/02 12:22:38;;;;;;;3.38;1.35;;;33.60;99.90;;;;;;5001025;28;20647;-87
2023/09/02 12:25:15;;;;;;;1.90;1.07;;;34.00;99.90;;;;;;5009140;28;20191;-87
2023/09/02 12:27:40;;;;;;;3.40;1.43;;;34.40;99.90;;;;;;5005777;28;20437;-87
2023/09/02 12:30:06;;;;;;;2.27;1.47;;;34.20;99.90;;;;;;5015592;28;20522;-86
2023/09/02 12:32:32;;;;;;;2.40;1.50;;;34.10;99.90;;;;;;5027038;28;20204;-87
2023/09/02 12:34:58;;;;;;;2.33;1.42;;;34.10;99.90;;;;;;5024600;28;20983;-87
2023/09/02 12:37:24;;;;;;;2.35;1.42;;;34.90;99.90;;;;;;5021493;28;20220;-87
2023/09/02 12:39:50;;;;;;;2.40;1.20;;;35.60;99.90;;;;;;5012061;28;20182;-86
2023/09/02 12:42:24;;;;;;;1.70;1.27;;;35.00;99.90;;;;;;5002740;28;20461;-87
2023/09/02 12:45:01;;;;;;;3.57;1.40;;;35.40;99.90;;;;;;5013166;28;20436;-87
2023/09/02 12:47:27;;;;;;;2.13;1.10;;;35.70;99.90;;;;;;5010352;28;20475;-87
2023/09/02 12:49:54;;;;;;;2.53;1.33;;;36.30;99.90;;;;;;5017563;28;21001;-87
2023/09/02 12:52:30;;;;;;;2.00;1.40;;;36.10;99.90;;;;;;5026122;28;20441;-87
2023/09/02 12:55:00;;;;;;;5.53;1.70;;;35.40;99.90;;;;;;5021766;28;20213;-87
2023/09/02 12:57:31;;;;;;;2.30;1.20;;;34.70;99.90;;;;;;5014775;28;20409;-87